createdAt,value
2023-01-13T00:01:08.754Z,18.28
2023-01-13T00:03:37.630Z,17.86
2023-01-13T00:06:08.205Z,18.14
2023-01-13T00:08:37.151Z,18.25
2023-01-13T00:11:05.991Z,17.86
2023-01-13T00:13:35.676Z,18.13
2023-01-13T00:16:05.651Z,18.01
2023-01-13T00:18:34.627Z,18.60
2023-01-13T00:21:04.086Z,18.12
2023-01-13T00:23:35.795Z,18.29
2023-01-13T00:26:07.077Z,18.37
2023-01-13T00:28:35.935Z,18.29
2023-01-13T00:31:23.643Z,18.46
2023-01-13T00:33:52.526Z,18.63
2023-01-13T00:36:22.002Z,19.12
2023-01-13T00:38:52.213Z,18.64
2023-01-13T00:41:21.698Z,18.91
2023-01-13T00:43:49.749Z,19.13
2023-01-13T00:46:19.622Z,18.98
2023-01-13T00:48:48.531Z,19.47
2023-01-13T00:51:18.488Z,19.44
2023-01-13T00:53:47.971Z,19.80
2023-01-13T00:56:22.119Z,20.27
2023-01-13T00:58:59.249Z,20.89
2023-01-13T01:01:28.498Z,21.06
2023-01-13T01:03:57.294Z,21.02
2023-01-13T01:06:26.924Z,21.52
2023-01-13T01:08:56.280Z,21.62
2023-01-13T01:11:27.294Z,22.18
2023-01-13T01:13:56.573Z,22.79
2023-01-13T01:16:26.554Z,22.78
2023-01-13T01:18:55.518Z,23.51
2023-01-13T01:21:25.269Z,23.70
2023-01-13T01:23:54.418Z,23.86
2023-01-13T01:26:24.084Z,24.80
2023-01-13T01:28:54.266Z,25.17
2023-01-13T01:31:26.227Z,24.96
2023-01-13T01:33:55.163Z,25.73
2023-01-13T01:36:26.373Z,25.91
2023-01-13T01:38:55.177Z,26.25
2023-01-13T01:41:24.846Z,26.59
2023-01-13T01:44:00.384Z,26.52
2023-01-13T01:46:30.673Z,27.68
2023-01-13T01:49:03.096Z,28.78
2023-01-13T01:51:34.225Z,29.98
2023-01-13T01:54:03.021Z,29.74
2023-01-13T01:56:31.927Z,30.10
2023-01-13T01:59:02.084Z,30.27
2023-01-13T02:01:30.950Z,31.62
2023-01-13T02:04:01.212Z,34.75
2023-01-13T02:06:30.466Z,37.44
2023-01-13T02:08:59.519Z,39.34
2023-01-13T02:11:43.434Z,39.48
2023-01-13T02:14:13.922Z,39.58
2023-01-13T02:16:44.501Z,39.75
2023-01-13T02:19:19.992Z,39.22
2023-01-13T02:22:03.420Z,39.15
2023-01-13T02:24:54.189Z,39.17
2023-01-13T02:27:52.848Z,38.74
2023-01-13T02:30:41.932Z,38.96
2023-01-13T02:33:21.444Z,42.21
2023-01-13T02:35:51.721Z,43.94
2023-01-13T02:38:21.756Z,44.58
2023-01-13T02:40:56.356Z,45.66
2023-01-13T02:43:41.121Z,48.13
2023-01-13T02:46:14.688Z,48.31
2023-01-13T02:48:43.866Z,50.19
2023-01-13T02:51:14.155Z,53.60
2023-01-13T02:53:44.890Z,56.59
2023-01-13T02:56:13.961Z,57.98
2023-01-13T02:58:42.771Z,58.76
2023-01-13T03:01:13.045Z,59.17
2023-01-13T03:03:42.214Z,59.95
2023-01-13T03:06:16.214Z,60.96
2023-01-13T03:08:47.974Z,61.64
2023-01-13T03:11:17.684Z,61.13
2023-01-13T03:13:54.543Z,63.68
2023-01-13T03:16:30.899Z,63.23
2023-01-13T03:19:07.636Z,66.39
2023-01-13T03:21:39.972Z,66.48
2023-01-13T03:24:11.062Z,65.25
2023-01-13T03:26:41.545Z,64.44
2023-01-13T03:29:12.131Z,63.13
2023-01-13T03:31:44.510Z,63.04
2023-01-13T03:34:15.689Z,62.29
2023-01-13T03:36:44.458Z,63.02
2023-01-13T03:39:15.141Z,62.17
2023-01-13T03:41:45.962Z,61.50
2023-01-13T03:44:24.928Z,60.54
2023-01-13T03:47:01.031Z,58.76
2023-01-13T03:49:32.284Z,58.29
2023-01-13T03:52:02.534Z,58.41
2023-01-13T03:54:32.503Z,57.69
2023-01-13T03:57:02.308Z,58.06
2023-01-13T03:59:32.824Z,56.26
2023-01-13T04:02:04.367Z,56.00
2023-01-13T04:04:34.548Z,54.65
2023-01-13T04:07:09.245Z,53.10
2023-01-13T04:09:40.640Z,52.34
2023-01-13T04:12:12.773Z,51.61
2023-01-13T04:14:41.691Z,51.84
2023-01-13T04:17:11.937Z,50.35
2023-01-13T04:19:40.977Z,50.40
2023-01-13T04:22:09.770Z,51.08
2023-01-13T04:24:38.591Z,50.75
2023-01-13T04:27:07.695Z,50.65
2023-01-13T04:29:36.769Z,50.97
2023-01-13T04:32:05.599Z,51.34
2023-01-13T04:34:35.754Z,51.81
2023-01-13T04:37:04.823Z,51.84
2023-01-13T04:39:33.623Z,51.07
2023-01-13T04:42:02.939Z,51.72
2023-01-13T04:44:35.521Z,51.36
2023-01-13T04:47:04.305Z,51.43
2023-01-13T04:49:34.684Z,51.12
2023-01-13T04:52:04.226Z,51.69
2023-01-13T04:54:33.301Z,52.64
2023-01-13T04:57:02.072Z,51.85
2023-01-13T04:59:31.202Z,52.34
2023-01-13T05:02:00.862Z,52.40
2023-01-13T05:04:29.689Z,52.49
2023-01-13T05:06:59.890Z,52.42
2023-01-13T05:09:28.703Z,52.03
2023-01-13T05:12:12.178Z,51.78
2023-01-13T05:14:54.860Z,52.48
2023-01-13T05:17:25.411Z,53.29
2023-01-13T05:19:54.206Z,53.58
2023-01-13T05:22:38.282Z,54.54
2023-01-13T05:25:21.277Z,54.77
2023-01-13T05:27:50.078Z,54.23
2023-01-13T05:30:19.511Z,54.28
2023-01-13T05:32:48.310Z,54.58
2023-01-13T05:35:17.263Z,57.15
2023-01-13T05:37:47.477Z,56.87
2023-01-13T05:40:31.012Z,56.49
2023-01-13T05:43:17.770Z,55.98
2023-01-13T05:45:47.044Z,57.88
2023-01-13T05:48:15.917Z,58.21
2023-01-13T05:50:44.966Z,57.89
2023-01-13T05:53:15.212Z,57.47
2023-01-13T05:55:44.327Z,57.66
2023-01-13T05:58:13.641Z,58.36
2023-01-13T06:00:42.466Z,58.04
2023-01-13T06:03:11.722Z,58.38
2023-01-13T06:05:40.790Z,59.35
2023-01-13T06:08:09.636Z,61.80
2023-01-13T06:10:43.077Z,62.08
2023-01-13T06:13:11.884Z,62.35
2023-01-13T06:15:40.646Z,63.33
2023-01-13T06:18:09.446Z,63.81
2023-01-13T06:20:38.562Z,63.95
2023-01-13T06:23:07.977Z,65.26
2023-01-13T06:25:42.947Z,64.96
2023-01-13T06:28:12.095Z,64.09
2023-01-13T06:30:43.128Z,64.87
2023-01-13T06:33:13.710Z,65.58
2023-01-13T06:35:45.102Z,64.42
2023-01-13T06:38:16.394Z,67.03
2023-01-13T06:40:46.568Z,65.59
2023-01-13T06:43:16.550Z,67.66
2023-01-13T06:45:48.357Z,67.54
2023-01-13T06:48:17.911Z,67.18
2023-01-13T06:50:46.755Z,70.91
2023-01-13T06:53:15.806Z,72.59
2023-01-13T06:55:46.003Z,74.43
2023-01-13T06:58:14.813Z,75.94
2023-01-13T07:00:43.940Z,77.49
2023-01-13T07:03:13.781Z,75.76
2023-01-13T07:05:43.229Z,75.55
2023-01-13T07:08:12.597Z,77.47
2023-01-13T07:10:41.631Z,75.72
2023-01-13T07:13:25.694Z,75.66
2023-01-13T07:15:56.518Z,71.34
2023-01-13T07:18:27.525Z,70.31
2023-01-13T07:20:57.194Z,71.03
2023-01-13T07:23:26.907Z,71.21
2023-01-13T07:25:57.287Z,72.70
2023-01-13T07:28:29.830Z,75.88
2023-01-13T07:30:59.057Z,74.01
2023-01-13T07:33:35.421Z,73.08
2023-01-13T07:36:05.723Z,74.97
2023-01-13T07:38:35.234Z,75.71
2023-01-13T07:41:24.276Z,79.72
2023-01-13T07:43:54.775Z,82.53
2023-01-13T07:46:23.511Z,81.28
2023-01-13T07:48:52.617Z,84.77
2023-01-13T07:51:21.389Z,87.47
2023-01-13T07:53:50.475Z,89.38
2023-01-13T07:56:19.478Z,92.70
2023-01-13T07:58:51.261Z,93.58
2023-01-13T08:01:21.840Z,98.70
2023-01-13T08:03:50.731Z,96.96
2023-01-13T08:06:19.594Z,96.87
2023-01-13T08:08:48.385Z,98.45
2023-01-13T08:11:17.429Z,100.00
2023-01-13T08:13:46.238Z,100.00
2023-01-13T08:16:16.472Z,100.00
2023-01-13T08:18:46.626Z,100.00
2023-01-13T08:21:15.951Z,99.29
2023-01-13T08:23:45.735Z,98.44
2023-01-13T08:26:15.070Z,98.41
2023-01-13T08:28:43.852Z,97.12
2023-01-13T08:31:13.591Z,100.00
2023-01-13T08:33:42.708Z,100.00
2023-01-13T08:36:13.579Z,100.00
2023-01-13T08:38:42.513Z,100.00
2023-01-13T08:41:11.989Z,100.00
2023-01-13T08:43:41.082Z,100.00
2023-01-13T08:46:09.927Z,100.00
2023-01-13T08:48:38.793Z,100.00
2023-01-13T08:51:09.103Z,100.00
2023-01-13T08:53:39.272Z,100.00
2023-01-13T08:56:16.190Z,100.00
2023-01-13T08:58:49.014Z,100.00
2023-01-13T09:01:30.436Z,100.00
2023-01-13T09:04:01.179Z,100.00
2023-01-13T09:06:30.276Z,100.00
2023-01-13T09:09:02.602Z,100.00
2023-01-13T09:11:46.744Z,100.00
2023-01-13T09:14:19.540Z,100.00
2023-01-13T09:16:48.423Z,100.00
2023-01-13T09:19:17.286Z,100.00
2023-01-13T09:21:46.805Z,100.00
2023-01-13T09:24:17.753Z,100.00
2023-01-13T09:26:47.331Z,100.00
2023-01-13T09:29:16.152Z,100.00
2023-01-13T09:31:45.381Z,100.00
2023-01-13T09:34:29.631Z,100.00
2023-01-13T09:36:59.502Z,100.00
2023-01-13T09:42:31.267Z,100.00
2023-01-13T09:45:01.977Z,100.00
2023-01-13T09:47:32.748Z,100.00
2023-01-13T09:50:04.217Z,100.00
2023-01-13T09:52:33.074Z,100.00
2023-01-13T09:55:05.547Z,100.00
2023-01-13T09:57:38.061Z,100.00
2023-01-13T10:00:12.823Z,100.00
2023-01-13T10:02:59.277Z,100.00
2023-01-13T10:05:32.820Z,100.00
2023-01-13T10:08:05.598Z,100.00
2023-01-13T10:10:41.317Z,100.00
2023-01-13T10:13:15.770Z,100.00
2023-01-13T10:15:48.005Z,100.00
2023-01-13T10:18:19.893Z,100.00
2023-01-13T10:20:54.145Z,100.00
2023-01-13T10:23:36.174Z,100.00
2023-01-13T10:26:11.884Z,100.00
2023-01-13T10:28:41.455Z,100.00
2023-01-13T10:31:14.665Z,100.00
2023-01-13T10:33:48.487Z,100.00
2023-01-13T10:36:18.579Z,100.00
2023-01-13T10:38:50.784Z,100.00
2023-01-13T10:41:25.185Z,100.00
2023-01-13T10:44:05.061Z,100.00
2023-01-13T10:46:35.980Z,100.00
2023-01-13T10:49:05.935Z,100.00
2023-01-13T10:51:45.549Z,100.00
2023-01-13T10:54:22.630Z,100.00
2023-01-13T10:57:13.388Z,100.00
2023-01-13T10:59:42.199Z,100.00
2023-01-13T11:02:25.696Z,100.00
2023-01-13T11:05:04.303Z,100.00
2023-01-13T11:07:34.653Z,100.00
2023-01-13T11:10:17.632Z,100.00
2023-01-13T11:12:54.517Z,100.00
2023-01-13T11:15:25.422Z,100.00
2023-01-13T11:18:00.770Z,100.00
2023-01-13T11:20:33.964Z,100.00
2023-01-13T11:23:04.964Z,100.00
2023-01-13T11:25:43.413Z,100.00
2023-01-13T11:28:35.627Z,100.00
2023-01-13T11:31:08.670Z,100.00
2023-01-13T11:33:41.137Z,100.00
2023-01-13T11:36:13.673Z,100.00
2023-01-13T11:38:50.810Z,100.00
2023-01-13T11:41:28.915Z,100.00
2023-01-13T11:44:02.585Z,100.00
2023-01-13T11:46:32.988Z,100.00
2023-01-13T11:49:01.908Z,100.00
2023-01-13T11:51:35.799Z,100.00
2023-01-13T11:54:15.947Z,100.00
2023-01-13T11:57:11.354Z,100.00
2023-01-13T11:59:50.182Z,100.00
2023-01-13T12:02:25.759Z,100.00
2023-01-13T12:04:57.681Z,100.00
2023-01-13T12:07:34.395Z,100.00
2023-01-13T12:10:12.295Z,100.00
2023-01-13T12:12:49.841Z,100.00
2023-01-13T12:15:37.226Z,100.00
2023-01-13T12:18:19.271Z,100.00
2023-01-13T12:20:55.120Z,100.00
2023-01-13T12:23:28.693Z,100.00
2023-01-13T12:26:02.486Z,100.00
2023-01-13T12:28:38.403Z,100.00
2023-01-13T12:31:10.120Z,100.00
2023-01-13T12:33:46.191Z,100.00
2023-01-13T12:36:22.772Z,100.00
2023-01-13T12:38:54.425Z,100.00
2023-01-13T12:41:35.427Z,100.00
2023-01-13T12:44:17.370Z,100.00
2023-01-13T12:46:53.608Z,100.00
2023-01-13T12:49:24.759Z,100.00
2023-01-13T12:52:10.968Z,100.00
2023-01-13T12:55:03.340Z,100.00
2023-01-13T12:57:34.744Z,100.00
2023-01-13T13:00:18.818Z,100.00
2023-01-13T13:03:19.410Z,100.00
2023-01-13T13:05:56.297Z,100.00
2023-01-13T13:08:27.953Z,100.00
2023-01-13T13:11:28.221Z,96.81
2023-01-13T13:13:57.287Z,84.68
2023-01-13T13:16:38.890Z,74.84
2023-01-13T13:19:37.191Z,66.59
2023-01-13T13:22:21.273Z,59.70
2023-01-13T13:25:19.267Z,55.11
2023-01-13T13:27:50.188Z,53.87
2023-01-13T13:30:21.752Z,52.92
2023-01-13T13:32:58.052Z,51.25
2023-01-13T13:35:35.300Z,51.97
2023-01-13T13:38:28.163Z,48.99
2023-01-13T13:41:13.236Z,47.98
2023-01-13T13:44:00.592Z,47.05
2023-01-13T13:46:43.995Z,44.70
2023-01-13T13:49:13.563Z,43.97
2023-01-13T13:51:45.411Z,42.67
2023-01-13T13:54:17.808Z,42.63
2023-01-13T13:56:53.679Z,40.66
2023-01-13T13:59:30.561Z,38.86
2023-01-13T14:02:04.030Z,37.82
2023-01-13T14:04:38.291Z,36.66
2023-01-13T14:07:20.008Z,35.40
2023-01-13T14:09:51.588Z,35.36
2023-01-13T14:12:21.416Z,34.95
2023-01-13T14:14:51.267Z,33.93
2023-01-13T14:17:22.071Z,33.63
2023-01-13T14:19:55.187Z,33.37
2023-01-13T14:22:27.620Z,33.46
2023-01-13T14:24:58.921Z,33.94
2023-01-13T14:27:28.965Z,33.98
2023-01-13T14:29:58.635Z,34.13
2023-01-13T14:32:34.200Z,34.29
2023-01-13T14:35:11.214Z,34.60
2023-01-13T14:37:41.692Z,35.16
2023-01-13T14:40:45.067Z,34.93
2023-01-13T14:43:17.020Z,35.15
2023-01-13T14:45:58.529Z,35.48
2023-01-13T14:48:35.126Z,35.84
2023-01-13T14:51:06.409Z,37.14
2023-01-13T14:53:40.410Z,36.71
2023-01-13T14:56:37.944Z,36.12
2023-01-13T14:59:36.235Z,35.82
2023-01-13T15:02:34.833Z,35.21
2023-01-13T15:05:32.387Z,35.09
2023-01-13T15:08:06.761Z,35.10
2023-01-13T15:10:38.662Z,35.24
2023-01-13T15:13:08.213Z,35.54
2023-01-13T15:15:38.015Z,34.98
2023-01-13T15:18:12.083Z,35.39
2023-01-13T15:20:41.345Z,34.66
2023-01-13T15:23:19.735Z,33.66
2023-01-13T15:25:50.736Z,33.91
2023-01-13T15:28:24.227Z,33.10
2023-01-13T15:30:55.027Z,33.75
2023-01-13T15:33:24.186Z,34.41
2023-01-13T15:35:53.921Z,34.92
2023-01-13T15:38:24.791Z,34.59
2023-01-13T15:40:53.742Z,34.94
2023-01-13T15:43:39.268Z,35.65
2023-01-13T15:46:26.303Z,36.09
2023-01-13T15:48:55.183Z,36.10
2023-01-13T15:51:25.263Z,36.24
2023-01-13T15:54:00.878Z,35.60
2023-01-13T15:56:29.766Z,35.76
2023-01-13T15:58:58.580Z,35.61
2023-01-13T16:01:27.409Z,34.38
2023-01-13T16:03:56.630Z,32.99
2023-01-13T16:06:29.267Z,32.61
2023-01-13T16:08:59.615Z,32.56
2023-01-13T16:11:28.824Z,32.23
2023-01-13T16:13:58.017Z,32.15
2023-01-13T16:16:27.934Z,31.54
2023-01-13T16:18:57.138Z,32.37
2023-01-13T16:21:26.274Z,32.89
2023-01-13T16:23:55.364Z,33.12
2023-01-13T16:26:26.303Z,32.93
2023-01-13T16:28:58.302Z,32.65
2023-01-13T16:31:31.802Z,32.39
2023-01-13T16:34:00.920Z,31.43
2023-01-13T16:36:30.771Z,31.13
2023-01-13T16:39:02.204Z,32.21
2023-01-13T16:41:50.696Z,31.93
2023-01-13T16:44:19.880Z,32.29
2023-01-13T16:49:36.402Z,31.01
2023-01-13T16:52:05.357Z,31.10
2023-01-13T16:54:34.178Z,30.29
2023-01-13T16:57:04.530Z,29.90
2023-01-13T16:59:33.463Z,29.94
2023-01-13T17:02:03.325Z,29.78
2023-01-13T17:04:32.598Z,29.54
2023-01-13T17:07:02.470Z,29.68
2023-01-13T17:09:34.133Z,30.61
2023-01-13T17:12:04.414Z,30.27
2023-01-13T17:14:33.864Z,29.99
2023-01-13T17:17:02.706Z,29.83
2023-01-13T17:19:32.445Z,29.35
2023-01-13T17:22:01.285Z,30.13
2023-01-13T17:24:31.410Z,30.49
2023-01-13T17:27:00.224Z,29.53
2023-01-13T17:29:30.389Z,30.39
2023-01-13T17:31:59.204Z,30.18
2023-01-13T17:34:28.546Z,30.40
2023-01-13T17:36:57.344Z,30.46
2023-01-13T17:39:27.569Z,30.75
2023-01-13T17:41:57.574Z,30.64
2023-01-13T17:44:26.867Z,31.16
2023-01-13T17:46:57.120Z,31.69
2023-01-13T17:49:26.058Z,31.78
2023-01-13T17:51:54.913Z,32.16
2023-01-13T17:54:24.313Z,33.37
2023-01-13T17:56:53.150Z,33.04
2023-01-13T17:59:22.741Z,32.90
2023-01-13T18:01:51.618Z,32.51
2023-01-13T18:04:23.489Z,33.25
2023-01-13T18:06:52.292Z,33.82
2023-01-13T18:09:21.985Z,33.48
2023-01-13T18:11:52.266Z,33.91
2023-01-13T18:14:23.038Z,33.51
2023-01-13T18:16:52.200Z,33.38
2023-01-13T18:19:46.077Z,33.17
2023-01-13T18:22:28.669Z,33.18
2023-01-13T18:25:11.401Z,32.35
2023-01-13T18:27:41.761Z,31.43
2023-01-13T18:30:11.294Z,31.53
2023-01-13T18:32:40.063Z,31.46
2023-01-13T18:35:11.327Z,31.11
2023-01-13T18:37:40.753Z,31.51
2023-01-13T18:40:10.700Z,30.93
2023-01-13T18:43:02.034Z,31.28
2023-01-13T18:45:40.533Z,31.25
2023-01-13T18:48:09.383Z,31.72
2023-01-13T18:50:39.664Z,32.30
2023-01-13T18:53:08.501Z,32.84
2023-01-13T18:55:55.822Z,33.83
2023-01-13T19:01:10.999Z,37.05
2023-01-13T19:03:39.779Z,37.89
2023-01-13T19:06:12.900Z,38.95
2023-01-13T19:08:42.476Z,39.14
2023-01-13T19:11:11.232Z,40.35
2023-01-13T19:13:40.038Z,41.22
2023-01-13T19:16:09.740Z,42.26
2023-01-13T19:18:38.512Z,42.32
2023-01-13T19:21:07.771Z,43.16
2023-01-13T19:23:38.148Z,44.00
2023-01-13T19:26:08.133Z,44.46
2023-01-13T19:28:37.094Z,44.34
2023-01-13T19:31:07.503Z,44.90
2023-01-13T19:33:38.275Z,45.45
2023-01-13T19:36:07.472Z,47.91
2023-01-13T19:38:38.909Z,48.15
2023-01-13T19:41:28.535Z,49.18
2023-01-13T19:44:18.400Z,49.81
2023-01-13T19:46:47.170Z,50.64
2023-01-13T19:49:16.387Z,50.96
2023-01-13T19:51:45.213Z,52.60
2023-01-13T19:54:15.324Z,53.89
2023-01-13T19:56:44.429Z,55.07
2023-01-13T19:59:13.617Z,55.07
2023-01-13T20:01:42.479Z,56.50
2023-01-13T20:04:14.654Z,56.35
2023-01-13T20:06:43.532Z,57.19
2023-01-13T20:09:12.955Z,59.38
2023-01-13T20:11:43.297Z,59.90
2023-01-13T20:14:12.705Z,60.80
2023-01-13T20:16:41.771Z,61.53
2023-01-13T20:19:10.582Z,61.59
2023-01-13T20:21:40.068Z,63.39
2023-01-13T20:24:11.675Z,62.86
2023-01-13T20:26:40.463Z,62.53
2023-01-13T20:31:57.009Z,64.73
2023-01-13T20:34:26.126Z,65.79
2023-01-13T20:36:55.193Z,64.71
2023-01-13T20:39:25.190Z,64.87
2023-01-13T20:42:07.636Z,65.18
2023-01-13T20:44:38.045Z,63.98
2023-01-13T20:47:06.864Z,63.57
2023-01-13T20:49:36.400Z,63.81
2023-01-13T20:52:10.119Z,64.96
2023-01-13T20:54:38.883Z,65.78
2023-01-13T20:57:09.971Z,66.12
2023-01-13T20:59:40.839Z,65.74
2023-01-13T21:02:12.378Z,65.83
2023-01-13T21:04:41.170Z,65.67
2023-01-13T21:07:09.981Z,66.95
2023-01-13T21:09:39.150Z,66.50
2023-01-13T21:12:22.018Z,66.51
2023-01-13T21:15:06.103Z,65.69
2023-01-13T21:17:49.248Z,63.38
2023-01-13T21:20:18.727Z,61.28
2023-01-13T21:22:49.197Z,60.53
2023-01-13T21:25:18.568Z,58.99
2023-01-13T21:27:48.111Z,58.39
2023-01-13T21:30:19.262Z,58.16
2023-01-13T21:32:48.621Z,59.28
2023-01-13T21:35:18.507Z,58.76
2023-01-13T21:37:48.109Z,59.37
2023-01-13T21:40:18.322Z,59.31
2023-01-13T21:43:01.097Z,58.56
2023-01-13T21:45:45.227Z,58.04
2023-01-13T21:48:15.646Z,58.90
2023-01-13T21:50:45.855Z,59.07
2023-01-13T21:53:14.996Z,57.31
2023-01-13T21:55:44.115Z,56.00
2023-01-13T21:58:15.764Z,54.24
2023-01-13T22:00:46.504Z,53.97
2023-01-13T22:03:18.885Z,53.90
2023-01-13T22:05:54.572Z,53.53
2023-01-13T22:08:25.476Z,52.86
2023-01-13T22:10:58.860Z,53.78
2023-01-13T22:13:41.857Z,53.12
2023-01-13T22:16:12.717Z,53.15
2023-01-13T22:18:42.698Z,52.81
2023-01-13T22:21:13.825Z,51.78
2023-01-13T22:23:42.642Z,52.00
2023-01-13T22:26:11.599Z,51.69
2023-01-13T22:28:43.396Z,51.32
2023-01-13T22:31:14.740Z,51.29
2023-01-13T22:33:43.807Z,50.76
2023-01-13T22:36:12.576Z,50.92
2023-01-13T22:38:42.435Z,49.75
2023-01-13T22:41:11.296Z,49.20
2023-01-13T22:43:41.062Z,48.68
2023-01-13T22:46:10.740Z,48.43
2023-01-13T22:48:41.174Z,48.77
2023-01-13T22:51:10.826Z,49.72
2023-01-13T22:53:39.683Z,49.56
2023-01-13T22:56:09.041Z,49.16
2023-01-13T22:58:43.604Z,49.19
2023-01-13T23:01:12.990Z,49.11
2023-01-13T23:03:45.690Z,48.53
2023-01-13T23:06:14.488Z,49.40
2023-01-13T23:08:43.325Z,50.08
2023-01-13T23:11:12.833Z,50.77
2023-01-13T23:13:43.436Z,51.11
2023-01-13T23:16:14.415Z,51.67
2023-01-13T23:18:48.043Z,51.58
2023-01-13T23:21:18.127Z,51.95
2023-01-13T23:23:47.093Z,52.74
2023-01-13T23:26:15.865Z,52.73
2023-01-13T23:28:45.918Z,53.86
2023-01-13T23:31:15.499Z,55.30
2023-01-13T23:33:45.788Z,54.97
2023-01-13T23:36:15.499Z,54.97
2023-01-13T23:38:44.317Z,55.29
2023-01-13T23:41:14.915Z,55.80
2023-01-13T23:43:44.007Z,56.59
2023-01-13T23:46:14.238Z,56.93
2023-01-13T23:48:44.545Z,56.41
2023-01-13T23:51:14.070Z,57.66
2023-01-13T23:53:44.073Z,58.07
2023-01-13T23:56:14.405Z,58.19
2023-01-13T23:58:43.634Z,59.18
